createdAt,value
2018-09-23T00:00:36.893Z,46.40
2018-09-23T00:03:05.139Z,46.50
2018-09-23T00:05:33.347Z,46.40
2018-09-23T00:08:01.739Z,46.40
2018-09-23T00:10:30.076Z,46.40
2018-09-23T00:12:58.236Z,46.50
2018-09-23T00:15:26.400Z,46.50
2018-09-23T00:17:54.768Z,46.50
2018-09-23T00:20:22.943Z,46.50
2018-09-23T00:22:51.423Z,46.60
2018-09-23T00:25:19.741Z,46.60
2018-09-23T00:27:48.203Z,46.50
2018-09-23T00:30:16.685Z,46.60
2018-09-23T00:32:44.862Z,46.60
2018-09-23T00:35:13.116Z,46.50
2018-09-23T00:37:41.426Z,46.50
2018-09-23T00:40:09.558Z,46.60
2018-09-23T00:42:37.681Z,46.50
2018-09-23T00:45:06.199Z,46.40
2018-09-23T00:47:34.415Z,46.40
2018-09-23T00:50:02.579Z,46.20
2018-09-23T00:52:30.765Z,46.20
2018-09-23T00:54:59.198Z,46.30
2018-09-23T00:57:27.709Z,46.30
2018-09-23T00:59:55.857Z,46.40
2018-09-23T01:02:24.056Z,46.60
2018-09-23T01:04:52.339Z,47.20
2018-09-23T01:07:20.634Z,46.50
2018-09-23T01:09:49.011Z,46.50
2018-09-23T01:12:17.286Z,46.60
2018-09-23T01:14:45.422Z,46.50
2018-09-23T01:17:13.589Z,46.40
2018-09-23T01:19:41.830Z,46.40
2018-09-23T01:22:10.142Z,46.30
2018-09-23T01:24:38.467Z,46.40
2018-09-23T01:27:06.739Z,46.40
2018-09-23T01:29:36.300Z,46.50
2018-09-23T01:32:05.752Z,46.50
2018-09-23T01:34:34.611Z,46.60
2018-09-23T01:37:02.771Z,46.50
2018-09-23T01:39:30.944Z,46.30
2018-09-23T01:42:00.241Z,46.50
2018-09-23T01:44:29.368Z,46.60
2018-09-23T01:47:01.677Z,47.20
2018-09-23T01:49:30.229Z,46.50
2018-09-23T01:51:58.421Z,46.50
2018-09-23T01:54:26.589Z,46.60
2018-09-23T01:56:54.970Z,46.80
2018-09-23T01:59:23.817Z,46.70
2018-09-23T02:01:52.965Z,46.80
2018-09-23T02:04:21.258Z,46.80
2018-09-23T02:06:49.558Z,46.60
2018-09-23T02:09:18.104Z,46.50
2018-09-23T02:11:46.571Z,46.50
2018-09-23T02:14:14.760Z,46.60
2018-09-23T02:16:49.469Z,46.60
2018-09-23T02:19:17.933Z,47.20
2018-09-23T02:21:46.756Z,46.50
2018-09-23T02:24:16.340Z,46.50
2018-09-23T02:26:45.496Z,46.70
2018-09-23T02:29:13.637Z,46.60
2018-09-23T02:31:42.212Z,46.80
2018-09-23T02:34:11.155Z,46.60
2018-09-23T02:36:39.979Z,46.80
2018-09-23T02:39:09.407Z,46.70
2018-09-23T02:41:44.226Z,46.70
2018-09-23T02:44:12.621Z,46.70
2018-09-23T02:46:41.396Z,46.60
2018-09-23T02:49:09.842Z,46.80
2018-09-23T02:51:38.078Z,46.70
2018-09-23T02:54:06.429Z,46.70
2018-09-23T02:56:35.040Z,46.70
2018-09-23T02:59:03.606Z,46.60
2018-09-23T03:01:31.835Z,46.60
2018-09-23T03:04:00.116Z,46.60
2018-09-23T03:06:28.650Z,46.70
2018-09-23T03:08:57.604Z,46.70
2018-09-23T03:11:25.909Z,46.70
2018-09-23T03:13:54.088Z,46.80
2018-09-23T03:16:22.863Z,46.90
2018-09-23T03:18:51.963Z,46.80
2018-09-23T03:21:20.343Z,46.70
2018-09-23T03:23:48.728Z,46.70
2018-09-23T03:26:17.317Z,46.80
2018-09-23T03:28:45.840Z,46.80
2018-09-23T03:31:14.055Z,46.70
2018-09-23T03:33:42.440Z,46.70
2018-09-23T03:36:11.184Z,46.80
2018-09-23T03:38:39.521Z,46.80
2018-09-23T03:41:07.892Z,46.70
2018-09-23T03:43:36.548Z,46.70
2018-09-23T03:46:05.055Z,46.80
2018-09-23T03:48:35.661Z,46.80
2018-09-23T03:51:04.046Z,46.80
2018-09-23T03:53:32.418Z,46.70
2018-09-23T03:56:00.717Z,46.80
2018-09-23T03:58:29.503Z,46.80
2018-09-23T04:00:57.932Z,46.70
2018-09-23T04:03:26.068Z,46.70
2018-09-23T04:05:55.264Z,46.80
2018-09-23T04:08:23.442Z,46.70
2018-09-23T04:10:51.689Z,46.70
2018-09-23T04:13:20.572Z,46.70
2018-09-23T04:15:49.093Z,46.70
2018-09-23T04:18:17.523Z,46.70
2018-09-23T04:20:45.639Z,46.70
2018-09-23T04:23:14.103Z,46.70
2018-09-23T04:25:42.637Z,46.70
2018-09-23T04:28:11.388Z,46.70
2018-09-23T04:30:39.532Z,46.70
2018-09-23T04:33:07.713Z,46.80
2018-09-23T04:35:35.906Z,46.70
2018-09-23T04:38:04.283Z,46.70
2018-09-23T04:40:32.668Z,46.70
2018-09-23T04:43:01.208Z,46.70
2018-09-23T04:45:29.953Z,46.70
2018-09-23T04:47:58.112Z,46.80
2018-09-23T04:50:26.662Z,46.80
2018-09-23T04:52:55.275Z,47.40
2018-09-23T04:55:23.725Z,46.80
2018-09-23T04:57:51.827Z,46.90
2018-09-23T05:00:20.600Z,46.90
2018-09-23T05:02:49.068Z,46.90
2018-09-23T05:05:17.267Z,46.80
2018-09-23T05:07:45.448Z,46.80
2018-09-23T05:10:14.066Z,46.90
2018-09-23T05:12:42.382Z,46.90
2018-09-23T05:15:10.480Z,47.00
2018-09-23T05:17:39.068Z,46.90
2018-09-23T05:20:07.490Z,46.90
2018-09-23T05:22:35.625Z,46.80
2018-09-23T05:25:04.168Z,46.90
2018-09-23T05:27:32.286Z,46.80
2018-09-23T05:30:00.604Z,46.80
2018-09-23T05:32:28.760Z,46.80
2018-09-23T05:34:56.900Z,46.80
2018-09-23T05:37:25.035Z,46.80
2018-09-23T05:39:53.219Z,46.90
2018-09-23T05:42:21.331Z,46.90
2018-09-23T05:44:49.488Z,46.80
2018-09-23T05:47:17.668Z,46.90
2018-09-23T05:49:45.821Z,46.80
2018-09-23T05:52:13.919Z,46.80
2018-09-23T05:54:42.042Z,46.80
2018-09-23T05:57:10.284Z,46.80
2018-09-23T05:59:38.399Z,46.60
2018-09-23T06:02:06.522Z,46.70
2018-09-23T06:04:34.900Z,46.70
2018-09-23T06:07:03.028Z,46.80
2018-09-23T06:09:31.245Z,46.70
2018-09-23T06:11:59.752Z,46.80
2018-09-23T06:14:27.991Z,46.70
2018-09-23T06:16:56.119Z,46.80
2018-09-23T06:19:24.348Z,46.80
2018-09-23T06:21:52.507Z,46.80
2018-09-23T06:24:20.682Z,46.80
2018-09-23T06:26:48.920Z,46.60
2018-09-23T06:29:17.056Z,46.60
2018-09-23T06:31:45.195Z,46.70
2018-09-23T06:34:13.668Z,46.70
2018-09-23T06:36:42.084Z,46.60
2018-09-23T06:39:10.817Z,46.60
2018-09-23T06:41:39.770Z,46.70
2018-09-23T06:44:08.206Z,46.60
2018-09-23T06:46:36.427Z,46.60
2018-09-23T06:49:04.679Z,46.50
2018-09-23T06:51:33.035Z,46.40
2018-09-23T06:54:01.397Z,46.40
2018-09-23T06:56:29.487Z,46.60
2018-09-23T06:58:57.690Z,46.50
2018-09-23T07:01:26.055Z,46.60
2018-09-23T07:03:54.248Z,46.70
2018-09-23T07:06:22.812Z,46.60
2018-09-23T07:08:51.211Z,46.50
2018-09-23T07:11:19.309Z,46.50
2018-09-23T07:13:47.408Z,46.50
2018-09-23T07:16:15.531Z,46.40
2018-09-23T07:18:43.788Z,46.30
2018-09-23T07:21:12.424Z,46.30
2018-09-23T07:23:41.231Z,46.30
2018-09-23T07:26:09.633Z,46.30
2018-09-23T07:28:37.998Z,46.30
2018-09-23T07:31:07.152Z,46.20
2018-09-23T07:33:35.824Z,46.00
2018-09-23T07:36:04.032Z,45.90
2018-09-23T07:38:32.409Z,46.10
2018-09-23T07:41:00.711Z,46.10
2018-09-23T07:43:29.863Z,46.00
2018-09-23T07:45:58.604Z,46.60
2018-09-23T07:48:26.773Z,45.90
2018-09-23T07:50:55.570Z,45.90
2018-09-23T07:53:24.316Z,46.00
2018-09-23T07:55:52.423Z,45.90
2018-09-23T07:58:22.032Z,46.00
2018-09-23T08:00:50.707Z,45.90
2018-09-23T08:03:19.224Z,45.80
2018-09-23T08:05:47.571Z,45.80
2018-09-23T08:08:15.686Z,45.70
2018-09-23T08:10:48.016Z,45.80
2018-09-23T08:13:17.731Z,45.80
2018-09-23T08:15:46.011Z,45.80
2018-09-23T08:18:14.548Z,45.60
2018-09-23T08:20:44.692Z,45.50
2018-09-23T08:23:12.852Z,45.50
2018-09-23T08:25:41.190Z,45.40
2018-09-23T08:28:09.800Z,45.30
2018-09-23T08:30:39.251Z,45.50
2018-09-23T08:33:07.800Z,45.30
2018-09-23T08:35:35.980Z,45.20
2018-09-23T08:38:05.519Z,45.10
2018-09-23T08:40:34.743Z,45.30
2018-09-23T08:43:03.353Z,45.40
2018-09-23T08:45:31.497Z,45.10
2018-09-23T08:47:59.837Z,45.10
2018-09-23T08:50:28.528Z,44.90
2018-09-23T08:52:56.984Z,44.90
2018-09-23T08:55:25.229Z,44.90
2018-09-23T08:57:53.998Z,45.10
2018-09-23T09:00:22.536Z,45.00
2018-09-23T09:02:50.884Z,44.90
2018-09-23T09:05:19.110Z,45.00
2018-09-23T09:07:47.595Z,44.80
2018-09-23T09:10:15.767Z,44.80
2018-09-23T09:12:44.130Z,44.90
2018-09-23T09:15:12.750Z,45.00
2018-09-23T09:17:41.000Z,44.80
2018-09-23T09:20:09.512Z,44.90
2018-09-23T09:22:37.944Z,45.00
2018-09-23T09:25:06.535Z,45.00
2018-09-23T09:27:34.672Z,45.10
2018-09-23T09:30:02.836Z,45.40
2018-09-23T09:32:31.182Z,45.40
2018-09-23T09:34:59.620Z,45.30
2018-09-23T09:37:27.871Z,45.30
2018-09-23T09:39:57.161Z,45.30
2018-09-23T09:42:25.452Z,45.20
2018-09-23T09:44:53.718Z,45.40
2018-09-23T09:47:22.143Z,45.40
2018-09-23T09:49:50.516Z,45.30
2018-09-23T09:52:18.746Z,45.40
2018-09-23T09:54:46.902Z,45.40
2018-09-23T09:57:15.183Z,45.40
2018-09-23T09:59:45.227Z,45.40
2018-09-23T10:02:13.930Z,45.40
2018-09-23T10:04:42.210Z,46.10
2018-09-23T10:07:10.761Z,45.40
2018-09-23T10:09:39.300Z,45.50
2018-09-23T10:12:07.624Z,45.50
2018-09-23T10:14:35.900Z,45.50
2018-09-23T10:17:04.123Z,45.60
2018-09-23T10:19:33.320Z,45.60
2018-09-23T10:22:01.705Z,45.80
2018-09-23T10:24:29.869Z,45.60
2018-09-23T10:26:58.768Z,45.60
2018-09-23T10:29:27.093Z,45.60
2018-09-23T10:31:55.409Z,46.20
2018-09-23T10:34:24.452Z,45.40
2018-09-23T10:36:52.831Z,46.10
2018-09-23T10:39:21.007Z,45.50
2018-09-23T10:41:49.372Z,45.60
2018-09-23T10:44:17.873Z,45.60
2018-09-23T10:46:46.196Z,45.70
2018-09-23T10:49:14.276Z,45.70
2018-09-23T10:51:42.834Z,45.80
2018-09-23T10:54:11.016Z,45.80
2018-09-23T10:56:39.345Z,45.80
2018-09-23T10:59:07.784Z,45.70
2018-09-23T11:01:35.920Z,45.80
2018-09-23T11:04:04.410Z,45.60
2018-09-23T11:06:32.636Z,45.60
2018-09-23T11:09:00.933Z,45.80
2018-09-23T11:11:29.231Z,45.90
2018-09-23T11:13:58.435Z,45.70
2018-09-23T11:16:26.768Z,45.60
2018-09-23T11:18:55.143Z,45.50
2018-09-23T11:21:23.473Z,45.50
2018-09-23T11:23:51.585Z,45.50
2018-09-23T11:26:20.196Z,45.60
2018-09-23T11:28:48.539Z,45.60
2018-09-23T11:31:16.716Z,45.80
2018-09-23T11:33:44.839Z,45.60
2018-09-23T11:36:13.141Z,45.60
2018-09-23T11:38:41.354Z,45.60
2018-09-23T11:41:09.469Z,45.60
2018-09-23T11:43:37.758Z,45.60
2018-09-23T11:46:05.972Z,45.60
2018-09-23T11:48:34.351Z,45.70
2018-09-23T11:51:02.726Z,45.80
2018-09-23T11:53:30.846Z,45.80
2018-09-23T11:55:59.196Z,45.90
2018-09-23T11:58:28.500Z,45.90
2018-09-23T12:00:56.616Z,45.90
2018-09-23T12:03:24.724Z,46.00
2018-09-23T12:05:53.103Z,46.00
2018-09-23T12:08:21.231Z,46.10
2018-09-23T12:10:49.427Z,46.00
2018-09-23T12:13:17.689Z,46.10
2018-09-23T12:15:45.868Z,46.20
2018-09-23T12:18:13.983Z,46.10
2018-09-23T12:20:42.732Z,46.10
2018-09-23T12:23:10.808Z,46.20
2018-09-23T12:25:39.148Z,46.30
2018-09-23T12:28:07.280Z,46.30
2018-09-23T12:30:35.406Z,46.20
2018-09-23T12:33:03.742Z,46.20
2018-09-23T12:35:31.907Z,46.30
2018-09-23T12:38:00.028Z,46.30
2018-09-23T12:40:28.156Z,46.40
2018-09-23T12:42:56.276Z,46.20
2018-09-23T12:45:25.066Z,46.30
2018-09-23T12:47:53.410Z,46.20
2018-09-23T12:50:21.512Z,46.30
2018-09-23T12:52:49.824Z,46.20
2018-09-23T12:55:18.245Z,46.10
2018-09-23T12:57:46.370Z,46.10
2018-09-23T13:00:14.698Z,46.10
2018-09-23T13:02:42.848Z,46.20
2018-09-23T13:05:11.005Z,46.40
2018-09-23T13:07:45.897Z,46.30
2018-09-23T13:10:14.284Z,46.40
2018-09-23T13:12:42.388Z,46.40
2018-09-23T13:15:10.592Z,46.30
2018-09-23T13:17:38.724Z,46.20
2018-09-23T13:20:07.100Z,46.20
2018-09-23T13:22:35.576Z,46.30
2018-09-23T13:25:03.709Z,46.40
2018-09-23T13:27:31.937Z,46.40
2018-09-23T13:30:00.466Z,46.50
2018-09-23T13:32:28.564Z,46.60
2018-09-23T13:34:56.672Z,46.50
2018-09-23T13:37:25.158Z,46.60
2018-09-23T13:39:53.263Z,46.50
2018-09-23T13:42:21.519Z,46.50
2018-09-23T13:44:49.664Z,46.40
2018-09-23T13:47:17.790Z,46.50
2018-09-23T13:49:46.374Z,46.50
2018-09-23T13:52:14.632Z,46.50
2018-09-23T13:54:42.925Z,46.50
2018-09-23T13:57:12.007Z,46.70
2018-09-23T13:59:40.227Z,46.70
2018-09-23T14:02:08.346Z,46.50
2018-09-23T14:04:36.619Z,46.70
2018-09-23T14:07:04.795Z,46.80
2018-09-23T14:09:32.978Z,46.80
2018-09-23T14:12:01.232Z,46.80
2018-09-23T14:14:29.330Z,46.70
2018-09-23T14:16:57.704Z,46.70
2018-09-23T14:19:26.085Z,46.90
2018-09-23T14:21:54.692Z,46.90
2018-09-23T14:24:23.088Z,47.00
2018-09-23T14:26:51.472Z,46.90
2018-09-23T14:29:19.592Z,46.90
2018-09-23T14:31:47.992Z,46.80
2018-09-23T14:34:16.100Z,46.90
2018-09-23T14:36:44.268Z,46.70
2018-09-23T14:39:12.852Z,46.70
2018-09-23T14:41:40.994Z,46.70
2018-09-23T14:44:09.104Z,46.80
2018-09-23T14:46:37.408Z,46.80
2018-09-23T14:49:05.549Z,46.80
2018-09-23T14:51:34.467Z,46.80
2018-09-23T14:54:03.047Z,47.80
2018-09-23T14:56:31.157Z,49.40
2018-09-23T14:59:00.076Z,51.60
2018-09-23T15:01:28.316Z,52.10
2018-09-23T15:03:56.526Z,51.80
2018-09-23T15:06:25.024Z,50.70
2018-09-23T15:08:53.522Z,51.70
2018-09-23T15:11:21.822Z,52.10
2018-09-23T15:13:50.286Z,52.20
2018-09-23T15:16:18.441Z,51.90
2018-09-23T15:18:46.785Z,50.80
2018-09-23T15:21:15.076Z,50.10
2018-09-23T15:23:43.223Z,49.60
2018-09-23T15:26:11.453Z,49.20
2018-09-23T15:28:39.800Z,48.90
2018-09-23T15:31:07.920Z,48.80
2018-09-23T15:33:36.320Z,48.60
2018-09-23T15:36:04.640Z,48.50
2018-09-23T15:38:33.768Z,48.30
2018-09-23T15:41:01.927Z,48.00
2018-09-23T15:43:30.055Z,48.00
2018-09-23T15:45:58.341Z,48.00
2018-09-23T15:48:26.549Z,48.10
2018-09-23T15:50:54.713Z,48.30
2018-09-23T15:53:22.820Z,48.50
2018-09-23T15:55:51.124Z,48.60
2018-09-23T15:58:19.221Z,48.70
2018-09-23T16:00:47.523Z,49.20
2018-09-23T16:03:15.760Z,48.70
2018-09-23T16:05:43.889Z,48.70
2018-09-23T16:08:12.215Z,48.70
2018-09-23T16:10:40.651Z,48.90
2018-09-23T16:13:08.765Z,49.00
2018-09-23T16:15:37.136Z,49.10
2018-09-23T16:18:05.275Z,49.10
2018-09-23T16:20:33.763Z,49.20
2018-09-23T16:23:02.235Z,49.30
2018-09-23T16:25:30.469Z,49.30
2018-09-23T16:27:58.844Z,49.20
2018-09-23T16:30:27.085Z,49.30
2018-09-23T16:32:55.383Z,49.40
2018-09-23T16:35:23.908Z,49.50
2018-09-23T16:37:52.052Z,49.60
2018-09-23T16:40:20.325Z,49.70
2018-09-23T16:42:48.542Z,49.90
2018-09-23T16:45:16.906Z,49.90
2018-09-23T16:47:45.104Z,49.70
2018-09-23T16:50:13.211Z,49.90
2018-09-23T16:52:41.337Z,49.80
2018-09-23T16:55:09.456Z,49.90
2018-09-23T16:57:37.579Z,49.90
2018-09-23T17:00:07.736Z,50.00
2018-09-23T17:02:36.024Z,50.20
2018-09-23T17:05:04.124Z,50.30
2018-09-23T17:07:32.529Z,50.30
2018-09-23T17:10:00.653Z,50.30
2018-09-23T17:12:28.772Z,50.40
2018-09-23T17:14:56.874Z,50.50
2018-09-23T17:17:25.049Z,53.20
2018-09-23T17:19:53.170Z,53.00
2018-09-23T17:22:21.316Z,52.80
2018-09-23T17:24:49.440Z,52.40
2018-09-23T17:27:17.590Z,52.20
2018-09-23T17:29:45.720Z,51.80
2018-09-23T17:32:13.898Z,51.60
2018-09-23T17:34:41.990Z,51.40
2018-09-23T17:37:10.103Z,51.30
2018-09-23T17:39:38.240Z,51.50
2018-09-23T17:42:06.568Z,51.60
2018-09-23T17:44:34.686Z,51.70
2018-09-23T17:47:02.861Z,51.90
2018-09-23T17:49:31.008Z,51.90
2018-09-23T17:51:59.117Z,52.00
2018-09-23T17:54:27.259Z,52.00
2018-09-23T17:56:55.372Z,52.10
2018-09-23T17:59:23.503Z,52.20
2018-09-23T18:01:51.665Z,52.20
2018-09-23T18:04:19.799Z,52.40
2018-09-23T18:06:47.974Z,52.60
2018-09-23T18:09:16.121Z,52.70
2018-09-23T18:11:44.273Z,52.70
2018-09-23T18:14:12.591Z,52.70
2018-09-23T18:16:40.777Z,52.70
2018-09-23T18:19:08.925Z,52.80
2018-09-23T18:21:37.113Z,52.80
2018-09-23T18:24:05.220Z,52.80
2018-09-23T18:26:33.339Z,52.80
2018-09-23T18:29:01.441Z,53.00
2018-09-23T18:31:29.595Z,53.10
2018-09-23T18:33:57.713Z,53.10
2018-09-23T18:36:25.866Z,53.30
2018-09-23T18:38:54.016Z,53.20
2018-09-23T18:41:22.132Z,53.40
2018-09-23T18:43:50.251Z,53.40
2018-09-23T18:46:18.406Z,53.50
2018-09-23T18:48:46.531Z,53.40
2018-09-23T18:51:14.671Z,53.60
2018-09-23T18:53:47.048Z,53.50
2018-09-23T18:56:15.219Z,53.60
2018-09-23T18:58:43.343Z,53.80
2018-09-23T19:01:11.475Z,53.80
2018-09-23T19:03:39.732Z,53.80
2018-09-23T19:06:07.865Z,53.80
2018-09-23T19:08:36.592Z,53.90
2018-09-23T19:11:06.728Z,53.90
2018-09-23T19:13:40.654Z,53.80
2018-09-23T19:16:32.763Z,54.10
2018-09-23T19:19:01.194Z,54.10
2018-09-23T19:21:29.921Z,54.30
2018-09-23T19:23:58.365Z,54.30
2018-09-23T19:26:26.652Z,54.20
2018-09-23T19:28:59.117Z,54.20
2018-09-23T19:31:27.215Z,54.40
2018-09-23T19:33:55.809Z,54.30
2018-09-23T19:36:24.108Z,54.40
2018-09-23T19:38:52.532Z,54.50
2018-09-23T19:41:20.768Z,54.50
2018-09-23T19:43:49.112Z,54.60
2018-09-23T19:46:17.312Z,54.70
2018-09-23T19:48:45.680Z,54.70
2018-09-23T19:51:13.939Z,54.80
2018-09-23T19:53:44.383Z,54.70
2018-09-23T19:56:12.554Z,54.80
2018-09-23T19:58:40.815Z,54.90
2018-09-23T20:01:09.036Z,55.00
2018-09-23T20:03:39.828Z,54.90
2018-09-23T20:06:07.957Z,54.90
2018-09-23T20:08:36.366Z,55.00
2018-09-23T20:11:04.612Z,55.10
2018-09-23T20:13:33.769Z,55.20
2018-09-23T20:16:02.784Z,55.30
2018-09-23T20:18:31.511Z,55.20
2018-09-23T20:20:59.788Z,55.20
2018-09-23T20:23:28.273Z,55.10
2018-09-23T20:25:56.476Z,55.40
2018-09-23T20:28:25.213Z,55.50
2018-09-23T20:30:54.070Z,55.50
2018-09-23T20:33:22.532Z,55.70
2018-09-23T20:35:50.702Z,55.70
2018-09-23T20:38:18.918Z,55.50
2018-09-23T20:40:47.368Z,55.70
2018-09-23T20:43:15.778Z,55.70
2018-09-23T20:45:43.985Z,55.70
2018-09-23T20:48:12.232Z,55.70
2018-09-23T20:50:40.347Z,55.60
2018-09-23T20:53:08.480Z,55.70
2018-09-23T20:55:36.580Z,55.70
2018-09-23T20:58:04.883Z,55.80
2018-09-23T21:00:33.306Z,55.90
2018-09-23T21:03:01.489Z,55.90
2018-09-23T21:05:30.783Z,55.90
2018-09-23T21:07:58.910Z,56.00
2018-09-23T21:10:27.062Z,56.00
2018-09-23T21:12:55.185Z,56.00
2018-09-23T21:15:24.040Z,56.00
2018-09-23T21:17:53.201Z,56.00
2018-09-23T21:20:21.377Z,56.10
2018-09-23T21:22:49.559Z,56.10
2018-09-23T21:25:17.732Z,56.10
2018-09-23T21:27:45.889Z,56.90
2018-09-23T21:30:14.027Z,56.20
2018-09-23T21:32:42.145Z,56.20
2018-09-23T21:35:10.355Z,56.30
2018-09-23T21:37:38.512Z,56.50
2018-09-23T21:40:06.875Z,56.40
2018-09-23T21:42:34.996Z,56.40
2018-09-23T21:45:03.125Z,56.40
2018-09-23T21:47:31.243Z,56.50
2018-09-23T21:49:59.347Z,56.60
2018-09-23T21:52:27.488Z,56.50
2018-09-23T21:54:55.608Z,56.50
2018-09-23T21:57:23.732Z,56.60
2018-09-23T21:59:51.862Z,56.50
2018-09-23T22:02:19.984Z,56.60
2018-09-23T22:04:48.095Z,56.70
2018-09-23T22:07:16.259Z,56.70
2018-09-23T22:09:44.369Z,56.70
2018-09-23T22:12:12.489Z,57.20
2018-09-23T22:14:40.816Z,56.50
2018-09-23T22:17:08.960Z,56.70
2018-09-23T22:19:37.100Z,56.60
2018-09-23T22:22:05.224Z,56.70
2018-09-23T22:24:33.374Z,56.90
2018-09-23T22:27:01.717Z,56.80
2018-09-23T22:29:29.828Z,56.90
2018-09-23T22:31:57.967Z,56.90
2018-09-23T22:34:26.179Z,57.00
2018-09-23T22:36:54.412Z,56.90
2018-09-23T22:39:22.625Z,57.10
2018-09-23T22:41:50.783Z,57.60
2018-09-23T22:44:18.969Z,57.00
2018-09-23T22:46:47.149Z,57.00
2018-09-23T22:49:15.293Z,57.20
2018-09-23T22:51:43.479Z,57.20
2018-09-23T22:54:11.866Z,57.30
2018-09-23T22:56:40.011Z,57.20
2018-09-23T22:59:08.196Z,57.30
2018-09-23T23:01:36.312Z,57.20
2018-09-23T23:04:04.478Z,57.30
2018-09-23T23:06:32.629Z,57.10
2018-09-23T23:09:00.817Z,57.10
2018-09-23T23:11:28.934Z,57.10
2018-09-23T23:13:57.072Z,57.30
2018-09-23T23:16:25.212Z,57.30
2018-09-23T23:18:53.525Z,57.30
2018-09-23T23:21:21.818Z,57.30
2018-09-23T23:23:49.977Z,57.30
2018-09-23T23:26:18.146Z,57.30
2018-09-23T23:28:46.308Z,57.40
2018-09-23T23:31:20.025Z,57.60
2018-09-23T23:33:48.356Z,57.40
2018-09-23T23:36:16.636Z,57.40
2018-09-23T23:38:44.774Z,57.50
2018-09-23T23:41:13.004Z,57.40
2018-09-23T23:43:41.114Z,57.40
2018-09-23T23:46:09.293Z,57.50
2018-09-23T23:48:37.570Z,57.60
2018-09-23T23:51:05.909Z,57.60
2018-09-23T23:53:34.096Z,57.90
2018-09-23T23:56:02.397Z,57.60
2018-09-23T23:58:30.778Z,57.70
